Time;durP1;ratioP1;P1;durP2;ratioP2;P2;SDS_P1;SDS_P2;PMS_P1;PMS_P2;Temp;Humidity;BMP_temperature;BMP_pressure;BME280_temperature;BME280_humidity;BME280_pressure;Samples;Min_cycle;Max_cycle;Signal;HPM_P1;HPM_P2
2022/12/22 03:26:48;;;;;;;18.00;8.30;;;;;;;3.88;100.00;98993.35;106036;1292;61447;-73
2022/12/22 03:29:36;;;;;;;17.80;8.30;;;;;;;3.88;100.00;98994.41;106043;1290;72808;-72
2022/12/22 03:32:24;;;;;;;16.30;8.00;;;;;;;3.91;100.00;98988.61;106053;1287;66197;-72
2022/12/22 03:35:12;;;;;;;14.90;7.60;;;;;;;3.96;100.00;98990.41;106023;1291;71481;-72
2022/12/22 03:38:03;;;;;;;14.50;7.20;;;;;;;4.00;100.00;98988.23;105935;1291;57673;-72
2022/12/22 03:40:51;;;;;;;15.10;7.20;;;;;;;4.00;100.00;98980.27;105925;1298;60533;-71
2022/12/22 03:46:45;;;;;;;15.20;6.90;;;;;;;4.04;100.00;98978.10;106064;1291;66715;-74
2022/12/22 03:49:33;;;;;;;15.00;6.40;;;;;;;4.04;100.00;98967.91;105873;1294;71056;-72
2022/12/22 03:52:22;;;;;;;16.30;8.10;;;;;;;4.04;100.00;98967.58;106031;1292;57189;-72
2022/12/22 03:55:10;;;;;;;17.50;7.50;;;;;;;4.05;100.00;98965.76;106037;1284;61194;-72
2022/12/22 03:57:58;;;;;;;15.00;7.80;;;;;;;4.03;100.00;98960.94;106041;1297;72837;-72
2022/12/22 04:00:46;;;;;;;18.80;9.40;;;;;;;4.04;100.00;98957.52;105934;1284;68688;-72
2022/12/22 04:03:34;;;;;;;15.10;7.80;;;;;;;4.07;100.00;98962.48;105939;1291;72681;-72
2022/12/22 04:06:22;;;;;;;15.90;8.10;;;;;;;4.08;100.00;98953.77;106036;1292;59009;-73
2022/12/22 04:09:10;;;;;;;14.00;6.60;;;;;;;4.09;100.00;98961.98;106036;1292;61135;-71
2022/12/22 04:15:05;;;;;;;16.50;7.70;;;;;;;4.07;100.00;98960.66;106060;1290;69068;-72
2022/12/22 04:17:55;;;;;;;18.10;8.90;;;;;;;4.08;100.00;98955.17;105934;1292;71317;-72
2022/12/22 04:20:43;;;;;;;18.30;8.70;;;;;;;4.09;100.00;98953.34;106034;1292;57933;-73
2022/12/22 04:23:31;;;;;;;14.70;7.40;;;;;;;4.10;100.00;98951.53;105935;1292;60086;-72
2022/12/22 04:26:22;;;;;;;17.10;8.60;;;;;;;4.07;100.00;98947.88;106036;1291;73123;-72
2022/12/22 04:29:10;;;;;;;18.20;8.00;;;;;;;4.04;100.00;98956.86;105939;1292;66286;-72
2022/12/22 04:31:58;;;;;;;20.00;9.50;;;;;;;3.99;100.00;98956.48;106029;1291;73695;-73
2022/12/22 04:34:46;;;;;;;21.30;10.20;;;;;;;3.97;100.00;98957.33;105913;1291;58497;-72
2022/12/22 04:37:34;;;;;;;18.50;8.50;;;;;;;3.96;100.00;98959.19;106040;1292;58698;-73
2022/12/22 04:40:22;;;;;;;20.60;9.40;;;;;;;3.94;100.00;98960.55;106032;1288;72997;-72
2022/12/22 04:43:10;;;;;;;17.00;7.70;;;;;;;3.93;100.00;98953.89;106047;1291;67841;-73
2022/12/22 04:45:58;;;;;;;18.80;9.10;;;;;;;3.92;100.00;98951.54;106008;1291;73697;-73
2022/12/22 04:48:46;;;;;;;20.80;9.90;;;;;;;3.90;100.00;98947.28;105955;1287;57225;-72
2022/12/22 04:51:34;;;;;;;19.80;9.00;;;;;;;3.91;100.00;98941.95;106045;1287;60060;-72
2022/12/22 04:54:22;;;;;;;18.90;9.10;;;;;;;3.91;100.00;98947.34;106039;1291;72992;-72
2022/12/22 04:57:10;;;;;;;20.40;9.70;;;;;;;3.92;100.00;98952.08;106032;1292;67868;-72
2022/12/22 04:59:58;;;;;;;16.60;8.40;;;;;;;3.93;100.00;98954.64;106051;1289;71232;-72
2022/12/22 05:02:46;;;;;;;17.70;8.20;;;;;;;3.93;100.00;98955.15;106036;1292;58782;-73
2022/12/22 05:05:35;;;;;;;19.60;9.70;;;;;;;3.91;100.00;98947.15;105954;1292;59070;-72
2022/12/22 05:08:22;;;;;;;23.50;10.70;;;;;;;3.92;100.00;98940.80;105294;1290;1002118;-72
2022/12/22 05:11:10;;;;;;;20.60;9.70;;;;;;;3.94;100.00;98940.68;106049;1292;66439;-72
2022/12/22 05:13:58;;;;;;;22.60;10.80;;;;;;;3.95;100.00;98943.63;106060;1284;72459;-73
2022/12/22 05:16:53;;;;;;;20.40;9.30;;;;;;;3.95;100.00;98943.45;106041;1296;57710;-72
2022/12/22 05:19:41;;;;;;;19.40;9.70;;;;;;;3.92;100.00;98943.10;105992;1287;60576;-72
2022/12/22 05:22:29;;;;;;;20.20;9.60;;;;;;;3.90;100.00;98938.30;106058;1289;72655;-73
2022/12/22 05:25:19;;;;;;;20.30;8.80;;;;;;;3.89;100.00;98943.48;106092;1289;66835;-72
2022/12/22 05:28:06;;;;;;;19.10;9.60;;;;;;;3.86;100.00;98952.30;106098;1288;72381;-73
2022/12/22 05:30:55;;;;;;;19.10;8.70;;;;;;;3.85;100.00;98950.26;106036;1291;57352;-73
2022/12/22 05:33:43;;;;;;;18.50;9.70;;;;;;;3.84;100.00;98942.95;106045;1289;58640;-72
2022/12/22 05:36:30;;;;;;;19.90;9.00;;;;;;;3.83;100.00;98938.61;105858;1291;73887;-71
2022/12/22 05:39:18;;;;;;;20.10;10.40;;;;;;;3.84;100.00;98936.59;106045;1292;66189;-71
2022/12/22 05:42:06;;;;;;;17.30;8.90;;;;;;;3.85;100.00;98934.80;106083;1288;72577;-71
2022/12/22 05:44:54;;;;;;;20.60;9.40;;;;;;;3.85;100.00;98935.52;106102;1287;58000;-71
2022/12/22 05:47:45;;;;;;;22.00;9.90;;;;;;;3.84;100.00;98933.65;106146;1285;60008;-71
2022/12/22 05:50:33;;;;;;;18.40;8.80;;;;;;;3.81;100.00;98935.93;105985;1288;196726;-70
2022/12/22 05:53:24;;;;;;;19.40;9.00;;;;;;;3.80;100.00;98936.18;106121;1289;66516;-70
2022/12/22 05:56:12;;;;;;;18.50;8.50;;;;;;;3.78;100.00;98941.25;106022;1292;73481;-71
2022/12/22 05:59:00;;;;;;;21.80;9.50;;;;;;;3.75;100.00;98938.06;106050;1295;58152;-71
2022/12/22 06:01:47;;;;;;;20.50;9.80;;;;;;;3.73;100.00;98938.61;106024;1287;61180;-71
2022/12/22 06:04:36;;;;;;;21.40;9.10;;;;;;;3.70;100.00;98939.28;106054;1287;72807;-70
2022/12/22 06:07:24;;;;;;;18.80;9.00;;;;;;;3.69;100.00;98939.88;106022;1284;68794;-72
2022/12/22 06:10:13;;;;;;;21.50;8.80;;;;;;;3.65;100.00;98943.50;106038;1288;73775;-73
2022/12/22 06:13:01;;;;;;;22.70;11.00;;;;;;;3.61;100.00;98940.95;105888;1287;57190;-72
2022/12/22 06:15:49;;;;;;;20.70;10.60;;;;;;;3.58;100.00;98949.59;106039;1282;61194;-71
2022/12/22 06:18:37;;;;;;;20.60;9.70;;;;;;;3.54;100.00;98950.69;103828;1288;1002432;-71
2022/12/22 06:21:25;;;;;;;19.40;8.50;;;;;;;3.52;100.00;98955.62;106067;1294;67624;-70
2022/12/22 06:24:13;;;;;;;18.90;9.20;;;;;;;3.51;100.00;98958.30;106067;1294;71148;-71
2022/12/22 06:27:01;;;;;;;22.60;10.10;;;;;;;3.51;100.00;98953.75;105984;1298;60370;-73
2022/12/22 06:29:49;;;;;;;19.50;9.60;;;;;;;3.53;100.00;98953.96;106088;1287;61391;-72
2022/12/22 06:32:38;;;;;;;19.20;9.60;;;;;;;3.53;100.00;98956.89;106090;1289;72798;-72
2022/12/22 06:35:26;;;;;;;18.20;9.10;;;;;;;3.56;100.00;98956.37;105939;1285;69225;-72
2022/12/22 06:38:14;;;;;;;19.00;9.60;;;;;;;3.59;100.00;98962.84;106068;1289;73459;-72
2022/12/22 06:41:02;;;;;;;20.60;10.20;;;;;;;3.61;100.00;98964.98;105958;1296;58580;-72
2022/12/22 06:43:50;;;;;;;19.90;9.40;;;;;;;3.63;100.00;98959.05;105993;1289;58690;-72
2022/12/22 06:46:38;;;;;;;20.40;9.50;;;;;;;3.67;100.00;98955.80;106117;1289;72940;-76
2022/12/22 06:49:26;;;;;;;19.20;9.90;;;;;;;3.69;100.00;98953.77;105970;1290;66622;-73
2022/12/22 06:52:14;;;;;;;20.10;9.10;;;;;;;3.70;100.00;98950.39;106102;1295;71765;-72
2022/12/22 06:55:03;;;;;;;19.40;9.60;;;;;;;3.71;100.00;98941.91;106113;1287;58232;-72
2022/12/22 06:57:51;;;;;;;23.70;10.50;;;;;;;3.69;100.00;98939.20;105818;1297;60102;-73
2022/12/22 07:00:40;;;;;;;21.50;8.90;;;;;;;3.69;100.00;98936.88;106076;1287;72899;-72
2022/12/22 07:03:28;;;;;;;24.70;11.00;;;;;;;3.70;100.00;98930.73;105986;1292;66236;-72
2022/12/22 07:06:19;;;;;;;24.80;10.60;;;;;;;3.70;100.00;98919.48;106098;1289;71211;-72
2022/12/22 07:09:07;;;;;;;22.70;10.20;;;;;;;3.68;100.00;98921.55;105968;1288;57515;-71
2022/12/22 07:11:55;;;;;;;25.40;11.40;;;;;;;3.68;100.00;98922.80;105925;1288;60048;-75
2022/12/22 07:14:43;;;;;;;23.30;10.50;;;;;;;3.67;100.00;98912.64;106091;1287;71090;-73
2022/12/22 07:17:31;;;;;;;21.20;11.40;;;;;;;3.68;100.00;98907.71;106081;1288;67604;-73
2022/12/22 07:20:19;;;;;;;22.60;10.00;;;;;;;3.68;100.00;98911.36;106083;1289;71175;-73
2022/12/22 07:23:07;;;;;;;22.80;11.40;;;;;;;3.66;100.00;98912.58;106063;1289;59877;-73
2022/12/22 07:25:55;;;;;;;23.00;10.40;;;;;;;3.65;100.00;98917.05;106072;1287;60115;-69
2022/12/22 07:28:43;;;;;;;20.40;11.10;;;;;;;3.65;100.00;98915.46;106062;1297;74002;-70
2022/12/22 07:31:31;;;;;;;20.00;9.90;;;;;;;3.66;100.00;98912.73;106027;1289;67590;-70
2022/12/22 07:34:19;;;;;;;18.90;9.30;;;;;;;3.67;100.00;98909.19;106088;1289;72612;-70
2022/12/22 07:37:07;;;;;;;21.70;10.80;;;;;;;3.68;100.00;98911.17;106077;1281;59802;-73
2022/12/22 07:39:55;;;;;;;22.50;10.70;;;;;;;3.71;100.00;98910.86;106080;1297;59938;-69
2022/12/22 07:42:45;;;;;;;19.70;10.60;;;;;;;3.73;100.00;98914.38;106086;1283;74132;-71
2022/12/22 07:45:33;;;;;;;21.30;10.60;;;;;;;3.78;100.00;98910.73;106110;1289;67766;-71
2022/12/22 07:51:33;;;;;;;23.20;11.20;;;;;;;3.86;100.00;98903.71;106106;1287;57184;-73
2022/12/22 07:54:20;;;;;;;24.00;11.20;;;;;;;3.90;100.00;98898.27;106047;1292;60187;-71
2022/12/22 07:57:08;;;;;;;23.40;11.50;;;;;;;3.94;100.00;98893.10;106096;1289;72761;-71
2022/12/22 07:59:56;;;;;;;21.20;11.00;;;;;;;3.96;100.00;98888.44;106104;1290;66189;-71
2022/12/22 08:02:52;;;;;;;26.80;12.30;;;;;;;3.97;100.00;98889.09;106125;1287;71203;-75
2022/12/22 08:05:40;;;;;;;27.30;12.90;;;;;;;3.98;100.00;98882.82;106074;1289;58833;-72
2022/12/22 08:08:28;;;;;;;25.00;11.40;;;;;;;3.96;100.00;98874.88;106090;1289;60065;-69
2022/12/22 08:11:16;;;;;;;35.00;12.20;;;;;;;3.89;100.00;98874.14;105973;1290;72841;-69
2022/12/22 08:14:04;;;;;;;25.20;11.10;;;;;;;3.88;100.00;98873.86;106039;1289;67752;-71
2022/12/22 08:16:52;;;;;;;27.90;11.70;;;;;;;3.89;100.00;98874.14;106016;1287;72866;-71
2022/12/22 08:19:40;;;;;;;26.80;11.50;;;;;;;3.92;100.00;98868.66;106021;1291;58026;-71
2022/12/22 08:22:29;;;;;;;28.00;13.00;;;;;;;3.93;100.00;98865.96;105994;1296;60121;-73
2022/12/22 08:25:17;;;;;;;25.50;12.30;;;;;;;3.97;100.00;98863.10;106008;1282;73044;-72
2022/12/22 08:28:05;;;;;;;26.50;11.50;;;;;;;4.00;100.00;98862.88;106004;1290;67576;-70
2022/12/22 08:30:53;;;;;;;26.00;12.70;;;;;;;4.02;100.00;98860.64;106010;1290;72547;-71
2022/12/22 08:33:41;;;;;;;25.30;12.00;;;;;;;4.04;100.00;98860.48;106076;1289;57768;-70
2022/12/22 08:36:34;;;;;;;23.90;10.60;;;;;;;4.01;100.00;98857.16;105957;1291;60109;-70
2022/12/22 08:39:26;;;;;;;24.80;11.60;;;;;;;4.00;100.00;98854.45;106097;1288;72992;-70
2022/12/22 08:42:16;;;;;;;22.20;10.70;;;;;;;4.05;100.00;98857.09;106078;1287;67748;-70
2022/12/22 08:45:07;;;;;;;25.30;11.50;;;;;;;4.07;100.00;98862.19;106102;1295;71347;-71
2022/12/22 08:47:56;;;;;;;23.90;11.50;;;;;;;4.08;100.00;98862.64;106063;1288;60831;-71
2022/12/22 08:50:44;;;;;;;24.80;11.80;;;;;;;4.10;100.00;98858.14;106074;1289;60017;-71
2022/12/22 08:53:32;;;;;;;28.50;11.20;;;;;;;4.15;100.00;98857.29;106105;1289;72006;-73
2022/12/22 08:56:41;;;;;;;25.60;11.50;;;;;;;4.18;100.00;98850.39;106106;1281;67644;-73
2022/12/22 08:59:29;;;;;;;27.00;12.60;;;;;;;4.21;100.00;98844.57;105957;1281;73503;-71
2022/12/22 09:02:17;;;;;;;23.10;10.30;;;;;;;4.28;100.00;98844.58;106090;1297;59351;-71
2022/12/22 09:05:06;;;;;;;24.70;11.40;;;;;;;4.34;100.00;98839.28;106061;1289;59992;-73
2022/12/22 09:07:54;;;;;;;26.50;11.40;;;;;;;4.36;100.00;98831.01;106055;1291;72378;-71
2022/12/22 09:10:42;;;;;;;28.40;12.00;;;;;;;4.40;100.00;98824.10;106040;1284;66862;-71
2022/12/22 09:13:30;;;;;;;23.60;11.20;;;;;;;4.51;100.00;98823.48;106030;1292;72455;-72
2022/12/22 09:16:20;;;;;;;30.30;12.10;;;;;;;4.53;100.00;98818.89;106021;1284;57711;-71
2022/12/22 09:19:08;;;;;;;27.20;10.70;;;;;;;4.53;100.00;98815.58;105996;1287;59061;-71
2022/12/22 09:21:56;;;;;;;26.30;11.00;;;;;;;4.54;100.00;98808.65;106038;1290;74053;-70
2022/12/22 09:24:44;;;;;;;27.30;11.70;;;;;;;4.66;100.00;98805.16;106069;1291;68072;-71
2022/12/22 09:27:32;;;;;;;28.00;12.00;;;;;;;4.79;100.00;98810.34;106033;1292;71275;-71
2022/12/22 09:30:20;;;;;;;32.00;12.60;;;;;;;4.79;100.00;98810.35;106021;1292;57341;-73
2022/12/22 09:33:08;;;;;;;27.00;11.40;;;;;;;4.79;99.99;98808.58;106026;1292;61112;-72
2022/12/22 09:35:57;;;;;;;26.60;11.10;;;;;;;4.79;100.00;98806.52;105893;1294;74090;-71
2022/12/22 09:38:55;;;;;;;26.80;11.50;;;;;;;4.85;99.99;98802.67;105906;1287;66335;-71
2022/12/22 09:41:56;;;;;;;29.40;12.10;;;;;;;4.93;99.99;98800.38;106009;1291;72427;-71
2022/12/22 09:44:49;;;;;;;27.90;11.80;;;;;;;5.00;99.89;98795.48;105856;1291;58028;-72
2022/12/22 09:47:39;;;;;;;24.50;11.20;;;;;;;5.09;99.53;98786.52;106035;1285;58515;-70
2022/12/22 09:50:29;;;;;;;25.40;11.30;;;;;;;5.11;99.07;98789.14;105903;1291;71886;-73
2022/12/22 09:53:22;;;;;;;23.80;10.90;;;;;;;5.11;99.07;98786.16;106018;1291;67593;-72
2022/12/22 09:56:16;;;;;;;24.40;10.70;;;;;;;5.13;99.07;98786.41;105904;1291;72683;-71
2022/12/22 09:59:17;;;;;;;23.80;10.70;;;;;;;5.11;99.21;98785.67;105905;1290;57300;-71
2022/12/22 10:02:41;;;;;;;24.20;10.10;;;;;;;5.16;99.27;98780.57;105914;1284;60873;-70
2022/12/22 10:05:56;;;;;;;20.80;9.00;;;;;;;5.19;99.09;98781.36;105920;1291;74124;-73
2022/12/22 10:08:43;;;;;;;22.70;10.40;;;;;;;5.20;99.12;98775.48;105999;1288;67000;-69
2022/12/22 10:11:31;;;;;;;25.00;9.40;;;;;;;5.29;99.52;98772.16;106094;1289;72465;-71
2022/12/22 10:14:21;;;;;;;25.20;9.90;;;;;;;5.36;98.40;98775.31;106090;1288;57660;-69
2022/12/22 10:17:27;;;;;;;26.40;10.90;;;;;;;5.38;98.13;98775.56;106089;1288;60360;-70
2022/12/22 10:20:26;;;;;;;23.30;10.20;;;;;;;5.41;98.15;98778.13;106116;1291;72817;-72
2022/12/22 10:23:28;;;;;;;22.80;9.80;;;;;;;5.41;98.27;98777.23;105966;1288;66333;-72
2022/12/22 10:26:23;;;;;;;26.50;11.50;;;;;;;5.48;98.23;98779.35;105938;1290;72708;-70
2022/12/22 10:29:17;;;;;;;24.20;10.90;;;;;;;5.58;97.88;98774.33;106002;1283;57280;-71
2022/12/22 10:32:17;;;;;;;26.00;10.30;;;;;;;5.62;97.36;98769.08;106114;1281;58012;-71
2022/12/22 10:35:06;;;;;;;25.40;11.80;;;;;;;5.61;97.13;98765.65;105970;1290;74338;-73
2022/12/22 10:37:54;;;;;;;24.50;11.20;;;;;;;5.63;97.00;98758.48;105839;1295;66244;-72
2022/12/22 10:40:45;;;;;;;26.50;10.90;;;;;;;5.69;97.04;98754.86;105970;1288;72662;-71
2022/12/22 10:43:47;;;;;;;27.40;10.30;;;;;;;5.77;96.84;98742.98;106109;1281;57636;-71
2022/12/22 10:46:46;;;;;;;26.70;10.80;;;;;;;5.82;96.73;98743.13;105986;1287;58864;-71
2022/12/22 10:49:42;;;;;;;24.70;11.40;;;;;;;6.10;96.02;98733.17;105950;1281;71343;-74
2022/12/22 10:52:31;;;;;;;21.60;10.00;;;;;;;7.05;92.29;98727.69;106101;1288;66142;-73
2022/12/22 10:55:24;;;;;;;23.30;11.20;;;;;;;7.18;89.45;98723.96;105953;1285;71194;-71
2022/12/22 10:58:20;;;;;;;22.70;9.80;;;;;;;6.92;89.00;98718.38;105912;1289;58074;-71
2022/12/22 11:01:10;;;;;;;24.60;10.80;;;;;;;6.72;89.85;98716.00;106098;1281;58636;-70
2022/12/22 11:04:15;;;;;;;21.10;9.30;;;;;;;6.58;90.52;98716.78;105972;1290;71739;-70
2022/12/22 11:07:08;;;;;;;23.50;10.70;;;;;;;6.47;91.34;98714.67;106017;1291;67574;-72
2022/12/22 11:09:56;;;;;;;24.10;11.20;;;;;;;6.46;92.34;98701.73;105905;1284;72584;-70
2022/12/22 11:13:02;;;;;;;22.70;11.70;;;;;;;6.43;91.78;98698.05;106018;1289;58261;-71
2022/12/22 11:16:18;;;;;;;24.20;10.90;;;;;;;6.44;91.90;98697.48;106018;1288;60479;-69
2022/12/22 11:19:43;;;;;;;22.50;10.80;;;;;;;6.51;91.99;98699.58;106003;1290;71800;-71
2022/12/22 11:22:46;;;;;;;23.20;10.60;;;;;;;6.59;92.13;98693.10;105907;1284;68866;-71
2022/12/22 11:25:59;;;;;;;19.70;9.40;;;;;;;6.68;91.71;98683.54;106040;1290;72582;-71
2022/12/22 11:29:41;;;;;;;21.00;10.00;;;;;;;6.75;91.12;98678.85;105937;1287;57228;-71
2022/12/22 11:33:06;;;;;;;19.40;9.60;;;;;;;6.73;91.45;98675.92;105941;1288;61427;-69
2022/12/22 11:36:03;;;;;;;25.70;10.90;;;;;;;6.59;91.30;98668.05;105811;1292;71871;-70
2022/12/22 11:38:59;;;;;;;21.30;9.50;;;;;;;6.44;92.09;98664.84;105858;1294;66157;-72
2022/12/22 11:41:59;;;;;;;24.40;9.90;;;;;;;6.28;92.98;98669.36;105869;1292;73862;-70
2022/12/22 11:45:13;;;;;;;21.90;10.20;;;;;;;6.13;93.79;98667.56;105987;1291;59288;-73
2022/12/22 11:48:26;;;;;;;20.70;9.90;;;;;;;6.05;94.61;98660.17;105928;1281;58662;-73
2022/12/22 11:52:12;;;;;;;21.20;9.60;;;;;;;5.97;95.51;98653.70;106086;1289;74320;-73
2022/12/22 11:55:29;;;;;;;19.50;9.50;;;;;;;5.92;95.78;98644.98;105915;1292;67743;-74
2022/12/22 11:58:44;;;;;;;18.90;8.30;;;;;;;5.77;96.28;98638.75;106055;1275;72601;-74
2022/12/22 12:02:13;;;;;;;21.40;8.90;;;;;;;5.74;96.95;98637.44;105868;1282;57176;-66
2022/12/22 12:05:19;;;;;;;18.40;8.20;;;;;;;5.75;97.07;98636.06;105990;1292;60330;-71
2022/12/22 12:08:55;;;;;;;18.90;9.10;;;;;;;5.76;97.29;98631.65;106030;1284;72989;-72
2022/12/22 12:11:55;;;;;;;23.40;9.90;;;;;;;5.82;97.54;98628.91;105914;1291;67672;-75
2022/12/22 12:15:04;;;;;;;21.40;9.30;;;;;;;5.91;97.48;98623.71;106028;1291;73162;-70
2022/12/22 12:18:45;;;;;;;23.90;10.80;;;;;;;5.94;97.05;98618.23;106037;1284;57997;-72
2022/12/22 12:21:44;;;;;;;25.50;11.00;;;;;;;5.94;97.37;98605.52;105916;1289;60128;-71
2022/12/22 12:24:41;;;;;;;24.30;11.20;;;;;;;5.95;97.27;98601.92;106090;1287;73085;-70
2022/12/22 12:28:14;;;;;;;23.80;10.20;;;;;;;5.96;97.27;98600.08;106061;1289;67500;-74
2022/12/22 12:31:05;;;;;;;25.70;11.90;;;;;;;5.87;97.63;98591.88;105942;1281;72940;-71
2022/12/22 12:34:00;;;;;;;27.30;13.70;;;;;;;5.90;97.78;98590.08;106095;1281;57891;-70
2022/12/22 12:37:26;;;;;;;24.40;11.50;;;;;;;5.93;98.01;98583.28;105868;1287;61156;-73
2022/12/22 12:40:46;;;;;;;25.00;12.00;;;;;;;5.95;97.93;98571.13;106076;1288;72976;-71
2022/12/22 12:43:34;;;;;;;24.20;11.10;;;;;;;6.03;97.80;98568.61;105957;1289;67782;-70
2022/12/22 12:46:55;;;;;;;26.80;12.00;;;;;;;6.08;97.41;98575.23;106050;1288;71238;-72
2022/12/22 12:50:25;;;;;;;27.10;13.00;;;;;;;6.08;97.43;98572.88;106122;1283;57778;-72
2022/12/22 12:53:14;;;;;;;25.90;12.20;;;;;;;6.02;97.39;98570.77;106102;1288;60317;-72
2022/12/22 12:56:07;;;;;;;26.80;13.00;;;;;;;5.97;97.75;98565.54;105883;1284;73090;-70
2022/12/22 12:58:56;;;;;;;24.90;11.70;;;;;;;5.94;98.02;98561.30;105871;1290;66408;-71
2022/12/22 13:02:00;;;;;;;26.40;12.00;;;;;;;5.91;98.15;98563.84;105898;1290;72756;-73
2022/12/22 13:05:07;;;;;;;23.80;12.10;;;;;;;5.87;98.18;98563.19;106009;1290;59666;-71
2022/12/22 13:08:19;;;;;;;24.80;11.30;;;;;;;5.83;98.68;98559.79;106007;1291;61091;-77
2022/12/22 13:11:08;;;;;;;26.10;12.30;;;;;;;5.77;99.12;98556.00;106018;1282;73173;-74
2022/12/22 13:13:56;;;;;;;27.60;13.20;;;;;;;5.72;99.35;98544.29;106042;1287;67640;-70
2022/12/22 13:16:44;;;;;;;29.50;13.20;;;;;;;5.69;99.80;98545.59;105910;1291;72197;-73
2022/12/22 13:19:32;;;;;;;29.20;13.70;;;;;;;5.63;99.97;98543.98;105778;1294;60581;-72
2022/12/22 13:22:21;;;;;;;26.60;14.30;;;;;;;5.59;100.00;98538.69;106028;1283;61149;-68
2022/12/22 13:25:17;;;;;;;28.00;13.20;;;;;;;5.56;100.00;98539.77;106028;1291;72916;-73
2022/12/22 13:28:13;;;;;;;24.80;11.80;;;;;;;5.51;100.00;98539.48;106019;1298;67068;-73
2022/12/22 13:31:29;;;;;;;28.30;12.60;;;;;;;5.49;100.00;98534.54;105795;1291;72503;-71
2022/12/22 13:34:21;;;;;;;25.40;12.50;;;;;;;5.40;100.00;98536.14;105790;1294;59268;-71
2022/12/22 13:37:28;;;;;;;25.40;12.10;;;;;;;5.34;100.00;98531.23;106012;1289;57665;-70
2022/12/22 13:40:29;;;;;;;25.20;12.70;;;;;;;5.26;100.00;98524.41;106012;1284;73770;-70
2022/12/22 13:43:19;;;;;;;25.40;13.00;;;;;;;5.26;100.00;98525.64;105834;1291;69107;-70
2022/12/22 13:46:08;;;;;;;26.70;12.40;;;;;;;5.23;100.00;98530.98;105914;1284;72618;-70
2022/12/22 13:48:59;;;;;;;24.10;11.70;;;;;;;5.21;100.00;98533.48;105832;1290;57848;-71
2022/12/22 13:51:47;;;;;;;28.20;13.20;;;;;;;5.19;100.00;98534.00;106017;1291;59808;-71
2022/12/22 13:54:38;;;;;;;28.10;13.00;;;;;;;5.16;100.00;98532.11;105921;1291;73086;-72
2022/12/22 13:57:27;;;;;;;28.40;12.90;;;;;;;5.10;100.00;98527.27;105957;1281;69113;-74
2022/12/22 14:00:23;;;;;;;26.70;12.10;;;;;;;5.07;100.00;98523.98;106092;1288;73528;-71
2022/12/22 14:03:18;;;;;;;26.60;12.10;;;;;;;4.99;100.00;98515.67;105945;1284;59324;-70
2022/12/22 14:06:39;;;;;;;27.90;13.00;;;;;;;4.91;100.00;98513.14;105973;1283;58266;-72
2022/12/22 14:09:28;;;;;;;24.40;11.50;;;;;;;4.89;100.00;98511.16;106014;1289;72917;-71
2022/12/22 14:12:27;;;;;;;24.70;12.00;;;;;;;4.85;100.00;98503.44;106087;1282;68664;-69
2022/12/22 14:15:18;;;;;;;24.50;12.90;;;;;;;4.81;100.00;98500.44;105933;1292;73666;-70
2022/12/22 14:18:14;;;;;;;24.30;10.90;;;;;;;4.76;100.00;98508.31;105943;1288;58340;-69
2022/12/22 14:21:02;;;;;;;24.40;11.70;;;;;;;4.74;100.00;98508.48;106001;1289;58594;-68
2022/12/22 14:23:50;;;;;;;26.40;12.90;;;;;;;4.73;100.00;98505.39;105930;1291;73057;-70
2022/12/22 14:26:39;;;;;;;24.40;10.90;;;;;;;4.73;100.00;98503.26;105918;1290;67585;-70
2022/12/22 14:29:29;;;;;;;26.00;13.10;;;;;;;4.71;100.00;98501.38;105896;1290;72621;-70
2022/12/22 14:32:36;;;;;;;29.20;13.30;;;;;;;4.69;100.00;98501.17;105931;1287;58245;-71
2022/12/22 14:35:29;;;;;;;29.80;14.10;;;;;;;4.67;100.00;98504.44;105959;1288;59042;-72
2022/12/22 14:38:25;;;;;;;27.40;13.00;;;;;;;4.66;100.00;98498.59;105943;1285;74071;-72
2022/12/22 14:41:40;;;;;;;30.20;13.10;;;;;;;4.64;100.00;98498.05;105987;1288;67574;-69
2022/12/22 14:44:41;;;;;;;30.80;14.00;;;;;;;4.62;100.00;98488.73;105999;1289;73668;-70
2022/12/22 14:47:29;;;;;;;30.30;13.20;;;;;;;4.60;100.00;98489.36;105970;1289;59867;-71
2022/12/22 14:50:35;;;;;;;28.10;13.10;;;;;;;4.60;100.00;98489.54;106128;1288;58667;-71
2022/12/22 14:53:57;;;;;;;31.50;14.30;;;;;;;4.58;100.00;98482.52;106108;1281;73010;-69
2022/12/22 14:56:50;;;;;;;26.20;12.10;;;;;;;4.54;100.00;98469.42;105585;1295;68853;-72
2022/12/22 14:59:38;;;;;;;23.30;11.20;;;;;;;4.51;100.00;98471.11;105470;1296;72509;-71
2022/12/22 15:02:37;;;;;;;25.80;12.10;;;;;;;4.49;100.00;98475.33;105501;1297;58121;-70
2022/12/22 15:05:36;;;;;;;24.90;12.20;;;;;;;4.46;100.00;98481.51;104980;1300;60103;-70
2022/12/22 15:08:40;;;;;;;23.10;11.00;;;;;;;4.44;100.00;98482.70;105176;1299;74133;-70
2022/12/22 15:11:30;;;;;;;26.20;12.30;;;;;;;4.39;100.00;98473.92;105138;1294;68872;-71
2022/12/22 15:14:23;;;;;;;24.00;12.60;;;;;;;4.38;100.00;98475.99;105049;1303;73541;-71
2022/12/22 15:17:24;;;;;;;27.40;11.50;;;;;;;4.37;100.00;98470.95;105076;1295;60656;-72
2022/12/22 15:20:25;;;;;;;25.20;11.70;;;;;;;4.36;100.00;98474.87;105127;1310;60106;-69
2022/12/22 15:23:15;;;;;;;24.50;11.70;;;;;;;4.36;100.00;98469.79;105122;1302;74143;-71
2022/12/22 15:26:05;;;;;;;25.10;12.10;;;;;;;4.36;100.00;98472.62;105134;1298;66635;-73
2022/12/22 15:28:53;;;;;;;21.30;11.40;;;;;;;4.36;100.00;98476.50;105062;1302;72373;-71
2022/12/22 15:31:42;;;;;;;21.20;10.70;;;;;;;4.36;100.00;98465.95;105103;1302;58050;-74
2022/12/22 15:34:31;;;;;;;19.90;9.80;;;;;;;4.36;100.00;98460.36;105539;1294;60010;-72
2022/12/22 15:37:19;;;;;;;20.40;8.90;;;;;;;4.33;100.00;98457.77;105933;1290;72113;-70
2022/12/22 15:40:16;;;;;;;22.30;11.30;;;;;;;4.33;100.00;98462.70;105909;1291;68703;-71
2022/12/22 15:43:07;;;;;;;21.20;9.50;;;;;;;4.29;100.00;98460.30;106023;1291;72220;-72
2022/12/22 15:46:17;;;;;;;20.50;10.50;;;;;;;4.32;100.00;98459.61;105989;1285;59646;-71
2022/12/22 15:49:18;;;;;;;20.30;10.30;;;;;;;4.30;100.00;98457.80;106033;1282;58671;-70
2022/12/22 15:52:11;;;;;;;20.60;10.70;;;;;;;4.29;100.00;98465.41;105904;1290;72835;-70
2022/12/22 15:55:04;;;;;;;20.20;10.40;;;;;;;4.28;100.00;98466.19;105929;1284;68964;-72
2022/12/22 15:57:56;;;;;;;21.90;10.60;;;;;;;4.29;100.00;98459.45;105504;1292;73816;-70
2022/12/22 16:00:45;;;;;;;23.30;11.30;;;;;;;4.30;100.00;98460.26;106008;1292;58486;-71
2022/12/22 16:03:34;;;;;;;19.30;9.60;;;;;;;4.31;100.00;98456.65;105929;1291;58988;-71
2022/12/22 16:06:33;;;;;;;;;;;;;;;;;;;;;
2022/12/22 16:09:27;;;;;;;22.40;11.50;;;;;;;4.30;100.00;98453.22;105608;1294;67772;-70
2022/12/22 16:12:18;;;;;;;24.00;12.00;;;;;;;4.31;100.00;98452.42;105634;1296;72645;-71
2022/12/22 16:15:12;;;;;;;19.50;9.80;;;;;;;4.32;100.00;98451.02;105622;1294;57239;-70
2022/12/22 16:18:01;;;;;;;20.60;11.00;;;;;;;4.28;100.00;98454.80;105638;1287;58648;-71
2022/12/22 16:20:50;;;;;;;22.60;12.10;;;;;;;4.28;100.00;98456.23;105606;1293;73284;-73
2022/12/22 16:23:41;;;;;;;22.10;11.40;;;;;;;4.29;100.00;98457.53;105701;1294;68212;-71
2022/12/22 16:26:30;;;;;;;21.90;10.50;;;;;;;4.31;100.00;98456.52;105645;1287;72629;-70
2022/12/22 16:29:18;;;;;;;21.60;11.40;;;;;;;4.30;100.00;98458.02;105664;1290;57194;-69
2022/12/22 16:32:22;;;;;;;23.00;12.60;;;;;;;4.30;100.00;98457.08;105644;1294;60022;-70
2022/12/22 16:35:11;;;;;;;22.40;11.70;;;;;;;4.33;100.00;98454.60;105625;1297;71868;-71
2022/12/22 16:37:59;;;;;;;21.20;10.50;;;;;;;4.34;100.00;98455.56;105661;1293;68806;-71
2022/12/22 16:40:51;;;;;;;22.10;11.30;;;;;;;4.33;100.00;98448.08;105617;1301;73794;-72
2022/12/22 16:43:40;;;;;;;24.70;11.20;;;;;;;4.31;100.00;98448.42;105678;1294;57535;-70
2022/12/22 16:46:40;;;;;;;22.90;11.90;;;;;;;4.27;100.00;98450.48;105822;1289;59397;-72
2022/12/22 16:49:29;;;;;;;23.50;12.40;;;;;;;4.25;100.00;98445.50;106084;1289;70478;-73
2022/12/22 16:52:21;;;;;;;22.90;11.60;;;;;;;4.23;100.00;98442.89;105815;1286;66810;-70